Time;durP1;ratioP1;P1;durP2;ratioP2;P2;SDS_P1;SDS_P2;PMS_P1;PMS_P2;Temp;Humidity;BMP_temperature;BMP_pressure;BME280_temperature;BME280_humidity;BME280_pressure;Samples;Min_cycle;Max_cycle;Signal;HPM_P1;HPM_P2
2023/08/29 00:01:04;;;;;;;3.80;1.33;;;;;;;21.39;65.33;99734.91;5095246;28;20194;-57
2023/08/29 00:03:31;;;;;;;3.30;1.50;;;;;;;21.38;65.89;99736.94;5108634;28;20209;-58
2023/08/29 00:06:03;;;;;;;3.33;2.10;;;;;;;21.38;65.97;99742.69;5103792;28;20522;-57
2023/08/29 00:08:29;;;;;;;3.70;1.60;;;;;;;21.37;65.41;99729.56;5108746;28;20408;-57
2023/08/29 00:10:56;;;;;;;8.70;1.80;;;;;;;21.37;65.88;99741.06;5108558;28;20829;-58
2023/08/29 00:13:21;;;;;;;7.40;2.07;;;;;;;21.37;65.94;99726.69;5109036;28;20660;-57
2023/08/29 00:15:46;;;;;;;3.40;1.97;;;;;;;21.38;65.94;99725.47;5106827;28;20450;-57
2023/08/29 00:18:12;;;;;;;4.67;2.20;;;;;;;21.37;65.18;99723.81;5108859;28;20197;-57
2023/08/29 00:20:37;;;;;;;5.10;1.83;;;;;;;21.37;65.90;99728.78;5086537;28;20178;-57
2023/08/29 00:23:03;;;;;;;3.70;1.70;;;;;;;21.36;65.67;99727.94;5108546;28;20221;-57
2023/08/29 00:25:30;;;;;;;4.00;2.03;;;;;;;21.38;65.51;99736.16;5103086;28;20214;-57
2023/08/29 00:27:55;;;;;;;3.17;1.60;;;;;;;21.37;65.45;99734.50;5108961;28;20415;-57
2023/08/29 00:30:20;;;;;;;3.37;2.00;;;;;;;21.37;65.84;99741.06;5083314;28;20178;-58
2023/08/29 00:32:46;;;;;;;3.90;2.07;;;;;;;21.37;65.70;99752.53;5108924;28;20181;-58
2023/08/29 00:35:11;;;;;;;3.27;2.40;;;;;;;21.36;65.51;99748.03;5106992;28;20181;-58
2023/08/29 00:37:37;;;;;;;2.87;1.60;;;;;;;21.37;65.61;99752.53;5107586;28;20606;-58
2023/08/29 00:40:03;;;;;;;2.67;1.80;;;;;;;21.37;65.43;99740.25;5102234;28;20276;-56
2023/08/29 00:42:29;;;;;;;3.37;1.80;;;;;;;21.36;65.77;99745.16;5104869;28;20174;-56
2023/08/29 00:44:54;;;;;;;3.80;2.40;;;;;;;21.35;65.58;99746.41;5107530;28;20445;-58
2023/08/29 00:47:20;;;;;;;3.00;1.83;;;;;;;21.35;65.57;99739.84;5103928;28;20247;-57
2023/08/29 00:49:45;;;;;;;9.80;2.20;;;;;;;21.35;65.29;99743.53;5091837;28;20260;-58
2023/08/29 00:52:10;;;;;;;5.87;2.00;;;;;;;21.34;65.72;99744.78;5085781;28;20215;-57
2023/08/29 00:54:36;;;;;;;4.43;2.87;;;;;;;21.34;65.21;99753.38;5098915;28;20189;-58
2023/08/29 00:57:02;;;;;;;5.60;1.60;;;;;;;21.35;65.19;99754.19;5102058;28;20235;-57
2023/08/29 00:59:27;;;;;;;3.77;1.87;;;;;;;21.33;65.56;99751.72;5108803;28;20182;-57
2023/08/29 01:01:53;;;;;;;4.67;1.90;;;;;;;21.35;65.82;99755.03;5104225;28;20897;-57
2023/08/29 01:04:19;;;;;;;3.47;1.80;;;;;;;21.35;65.97;99751.31;5111885;28;20945;-57
2023/08/29 01:06:45;;;;;;;6.10;2.13;;;;;;;21.33;65.16;99745.97;5111607;28;20195;-58
2023/08/29 01:09:10;;;;;;;6.77;1.90;;;;;;;21.33;65.56;99748.84;5089280;28;20540;-58
2023/08/29 01:11:48;;;;;;;4.37;1.70;;;;;;;21.33;65.88;99757.47;5111621;28;20165;-57
2023/08/29 01:14:19;;;;;;;2.60;1.60;;;;;;;21.34;65.55;99753.38;5111547;28;20184;-57
2023/08/29 01:16:52;;;;;;;3.60;1.77;;;;;;;21.34;65.80;99758.31;5111370;28;20419;-58
2023/08/29 01:19:18;;;;;;;2.33;1.50;;;;;;;21.33;66.00;99753.78;5108871;28;20439;-57
2023/08/29 01:21:54;;;;;;;3.57;2.33;;;;;;;21.32;65.79;99752.97;5111619;28;20517;-57
2023/08/29 01:25:00;;;;;;;4.47;2.13;;;;;;;21.32;65.96;99758.72;5077934;28;20592;-57
2023/08/29 01:27:26;;;;;;;3.63;1.67;;;;;;;21.33;65.74;99756.66;5079983;28;20487;-57
2023/08/29 01:29:51;;;;;;;3.90;1.90;;;;;;;21.31;65.75;99757.06;5088255;28;20797;-58
2023/08/29 01:32:16;;;;;;;3.90;1.70;;;;;;;21.31;65.78;99754.19;5092473;28;20654;-58
2023/08/29 01:34:43;;;;;;;3.90;1.53;;;;;;;21.30;65.68;99752.56;5089998;28;20620;-58
2023/08/29 01:37:09;;;;;;;2.90;1.50;;;;;;;21.30;65.71;99746.81;5092508;28;20178;-58
2023/08/29 01:39:34;;;;;;;6.53;1.87;;;;;;;21.30;65.50;99758.31;5110177;28;20485;-58
2023/08/29 01:41:59;;;;;;;3.70;1.60;;;;;;;21.30;65.87;99761.19;5106701;28;20356;-57
2023/08/29 01:44:25;;;;;;;4.40;1.73;;;;;;;21.30;65.90;99758.31;5110727;28;20201;-57
2023/08/29 01:46:50;;;;;;;5.03;1.70;;;;;;;21.30;65.35;99752.56;5092940;28;20178;-57
2023/08/29 01:49:16;;;;;;;4.07;1.63;;;;;;;21.29;65.90;99748.06;5126882;27;20201;-57
2023/08/29 01:51:41;;;;;;;3.83;1.70;;;;;;;21.29;65.88;99755.84;5109278;27;20181;-57
2023/08/29 01:54:07;;;;;;;4.10;2.03;;;;;;;21.29;65.76;99758.72;5111855;27;20193;-58
2023/08/29 01:56:32;;;;;;;2.97;1.50;;;;;;;21.28;65.71;99749.28;5115310;27;20185;-58
2023/08/29 01:58:57;;;;;;;2.63;1.50;;;;;;;21.30;65.42;99752.56;5111010;28;20577;-57
2023/08/29 02:01:23;;;;;;;7.50;1.80;;;;;;;21.29;65.62;99755.84;5109575;28;20773;-57
2023/08/29 02:03:49;;;;;;;3.20;1.80;;;;;;;21.28;65.67;99749.28;5087238;28;20213;-57
2023/08/29 02:06:14;;;;;;;3.20;1.60;;;;;;;21.27;65.74;99753.38;5107603;28;20201;-58
2023/08/29 02:08:41;;;;;;;2.63;1.73;;;;;;;21.27;65.40;99741.91;5110173;28;20176;-57
2023/08/29 02:11:06;;;;;;;10.00;1.80;;;;;;;21.28;65.75;99737.00;5109041;28;20630;-57
2023/08/29 02:13:32;;;;;;;4.03;1.60;;;;;;;21.27;65.36;99744.78;5109863;28;20477;-57
2023/08/29 02:15:57;;;;;;;2.93;1.60;;;;;;;21.27;65.46;99743.97;5103088;28;20185;-57
2023/08/29 02:18:23;;;;;;;3.03;1.67;;;;;;;21.27;65.47;99744.78;5111064;28;20166;-56
2023/08/29 02:20:48;;;;;;;2.43;1.63;;;;;;;21.27;65.73;99744.78;5101376;28;20228;-58
2023/08/29 02:23:14;;;;;;;6.80;1.80;;;;;;;21.27;65.58;99741.91;5090102;28;20207;-58
2023/08/29 02:25:39;;;;;;;2.73;1.70;;;;;;;21.27;65.54;99741.91;5104531;28;20185;-57
2023/08/29 02:28:05;;;;;;;4.77;2.10;;;;;;;21.26;65.48;99739.44;5104541;28;20510;-56
2023/08/29 02:30:34;;;;;;;4.30;1.70;;;;;;;21.25;65.48;99732.06;5104514;28;20570;-58
2023/08/29 02:33:00;;;;;;;2.77;1.77;;;;;;;21.26;65.70;99733.69;5104067;27;20540;-57
2023/08/29 02:35:25;;;;;;;2.77;1.60;;;;;;;21.25;65.67;99726.31;5108810;28;20435;-57
2023/08/29 02:37:51;;;;;;;2.83;1.80;;;;;;;21.24;65.88;99719.78;5091744;28;20182;-58
2023/08/29 02:40:16;;;;;;;3.30;1.97;;;;;;;21.24;65.63;99721.81;5101047;28;20192;-57
2023/08/29 02:42:43;;;;;;;2.70;1.80;;;;;;;21.24;65.78;99716.91;5099214;28;20190;-57
2023/08/29 02:45:09;;;;;;;3.93;2.27;;;;;;;21.25;65.50;99730.03;5091158;28;20645;-57
2023/08/29 02:47:34;;;;;;;2.40;1.77;;;;;;;21.24;65.93;99724.69;5107913;27;20493;-56
2023/08/29 02:50:00;;;;;;;3.23;1.90;;;;;;;21.24;65.47;99721.81;5102696;28;20213;-57
2023/08/29 02:52:25;;;;;;;2.47;1.87;;;;;;;21.24;65.61;99722.66;5109792;28;20181;-57
2023/08/29 02:54:50;;;;;;;2.80;1.80;;;;;;;21.24;65.75;99725.50;5103684;27;20174;-57
2023/08/29 02:57:16;;;;;;;3.67;2.07;;;;;;;21.23;65.52;99729.59;5094882;28;20181;-58
2023/08/29 02:59:41;;;;;;;4.03;1.60;;;;;;;21.23;66.07;99720.97;5101471;28;20190;-57
2023/08/29 03:02:07;;;;;;;4.53;1.93;;;;;;;21.22;65.91;99722.22;5112212;27;20177;-57
2023/08/29 03:04:32;;;;;;;3.97;1.60;;;;;;;21.22;65.92;99722.22;5105317;28;20201;-58
2023/08/29 03:06:58;;;;;;;2.10;1.50;;;;;;;21.21;65.99;99719.75;5108757;28;20170;-58
2023/08/29 03:09:24;;;;;;;3.10;1.73;;;;;;;21.22;66.10;99721.41;5106390;28;20209;-57
2023/08/29 03:11:49;;;;;;;3.33;1.90;;;;;;;21.21;65.64;99726.31;5108864;28;20178;-56
2023/08/29 03:14:15;;;;;;;3.23;1.57;;;;;;;21.21;66.08;99722.63;5096123;27;20233;-57
2023/08/29 03:16:40;;;;;;;3.80;1.87;;;;;;;21.21;65.68;99714.84;5093751;28;20609;-58
2023/08/29 03:19:06;;;;;;;3.60;1.90;;;;;;;21.20;65.37;99716.09;5105889;28;20239;-58
2023/08/29 03:21:31;;;;;;;3.10;1.60;;;;;;;21.20;65.57;99709.50;5098160;28;20390;-57
2023/08/29 03:23:57;;;;;;;7.80;2.03;;;;;;;21.20;65.82;99710.34;5087864;28;20213;-58
2023/08/29 03:26:22;;;;;;;2.63;1.40;;;;;;;21.20;66.00;99710.34;5072676;28;20178;-57
2023/08/29 03:28:48;;;;;;;2.80;1.63;;;;;;;21.21;65.84;99717.72;5089526;28;20180;-57
2023/08/29 03:31:15;;;;;;;3.87;1.87;;;;;;;21.19;65.48;99711.59;5101409;28;20177;-57
2023/08/29 03:33:41;;;;;;;4.57;1.77;;;;;;;21.19;65.70;99705.84;5107937;28;20263;-58
2023/08/29 03:36:07;;;;;;;4.47;2.03;;;;;;;21.19;65.84;99711.59;5106543;28;21297;-58
2023/08/29 03:38:37;;;;;;;5.87;1.70;;;;;;;21.19;65.83;99714.44;5104774;28;20246;-58
2023/08/29 03:41:06;;;;;;;3.10;2.07;;;;;;;21.20;65.82;99706.63;5105686;28;20914;-58
2023/08/29 03:43:32;;;;;;;2.90;1.70;;;;;;;21.19;65.42;99700.09;5109940;28;20803;-57
2023/08/29 03:46:02;;;;;;;2.90;1.73;;;;;;;21.18;66.18;99691.88;5106036;27;20459;-58
2023/08/29 03:48:28;;;;;;;8.60;2.00;;;;;;;21.18;65.57;99697.63;5120633;27;20438;-58
2023/08/29 03:50:53;;;;;;;3.83;1.57;;;;;;;21.19;65.79;99710.75;5110354;27;20846;-56
2023/08/29 03:53:19;;;;;;;4.10;1.47;;;;;;;21.18;65.86;99701.31;5092613;28;20193;-58
2023/08/29 03:55:44;;;;;;;3.17;1.70;;;;;;;21.17;65.70;99708.28;5084466;28;20186;-58
2023/08/29 03:58:10;;;;;;;4.17;1.60;;;;;;;21.17;66.19;99705.41;5105003;28;20173;-57
2023/08/29 04:00:36;;;;;;;3.60;2.20;;;;;;;21.16;65.71;99706.66;5109099;28;20185;-57
2023/08/29 04:03:01;;;;;;;7.83;2.10;;;;;;;21.17;65.72;99702.53;5073449;28;20205;-58
2023/08/29 04:05:27;;;;;;;4.27;2.00;;;;;;;21.15;65.56;99696.41;5108941;28;20695;-56
2023/08/29 04:07:52;;;;;;;2.83;1.63;;;;;;;21.16;65.94;99697.22;5104921;28;20722;-57
2023/08/29 04:10:18;;;;;;;3.20;1.97;;;;;;;21.16;66.01;99702.94;5108837;28;20192;-57
2023/08/29 04:12:44;;;;;;;2.23;1.60;;;;;;;21.16;65.89;99691.47;5104800;28;20174;-57
2023/08/29 04:15:12;;;;;;;3.60;1.80;;;;;;;21.16;65.43;99694.34;5108569;28;20182;-57
2023/08/29 04:17:37;;;;;;;2.87;1.40;;;;;;;21.15;65.98;99696.41;5107811;28;20427;-57
2023/08/29 04:20:08;;;;;;;3.30;1.77;;;;;;;21.16;65.45;99700.06;5099887;28;20439;-58
2023/08/29 04:22:38;;;;;;;2.93;1.70;;;;;;;21.15;65.88;99709.94;5107461;28;20255;-58
2023/08/29 04:25:06;;;;;;;3.83;1.90;;;;;;;21.15;65.58;99698.44;5106228;28;20491;-58
2023/08/29 04:27:32;;;;;;;5.53;1.40;;;;;;;21.13;65.97;99698.06;5102192;28;20428;-58
2023/08/29 04:29:57;;;;;;;3.23;2.00;;;;;;;21.13;66.10;99701.72;5107451;28;20476;-58
2023/08/29 04:32:24;;;;;;;3.20;1.63;;;;;;;21.13;65.57;99701.72;5089086;28;20181;-58
2023/08/29 04:34:49;;;;;;;3.77;1.30;;;;;;;21.11;65.49;99704.19;5105976;28;20166;-57
2023/08/29 04:37:15;;;;;;;2.47;1.80;;;;;;;21.12;65.53;99700.09;5094741;28;20408;-58
2023/08/29 04:39:41;;;;;;;4.13;1.90;;;;;;;21.13;65.84;99700.94;5113790;27;20898;-56
2023/08/29 04:42:06;;;;;;;3.27;1.70;;;;;;;21.12;65.73;99700.09;5114726;27;20443;-57
2023/08/29 04:44:33;;;;;;;5.53;1.87;;;;;;;21.12;65.75;99702.16;5112851;28;20185;-57
2023/08/29 04:46:59;;;;;;;2.53;1.83;;;;;;;21.11;65.59;99715.69;5099529;28;20217;-58
2023/08/29 04:49:24;;;;;;;2.90;1.60;;;;;;;21.11;65.43;99709.94;5086699;28;20858;-57
2023/08/29 04:51:50;;;;;;;3.90;2.10;;;;;;;21.10;65.95;99708.31;5102010;28;20173;-57
2023/08/29 04:54:15;;;;;;;3.37;1.63;;;;;;;21.09;65.70;99706.69;5110492;28;20204;-58
2023/08/29 04:56:40;;;;;;;3.17;1.80;;;;;;;21.10;65.56;99713.22;5103523;28;20234;-58
2023/08/29 04:59:06;;;;;;;4.10;1.50;;;;;;;21.09;65.17;99712.41;5109900;28;20239;-58
2023/08/29 05:01:32;;;;;;;6.63;2.20;;;;;;;21.10;65.52;99718.97;5108547;28;20182;-57
2023/08/29 05:03:57;;;;;;;7.07;2.20;;;;;;;21.09;65.64;99711.59;5110337;28;20255;-57
2023/08/29 05:06:25;;;;;;;2.30;1.50;;;;;;;21.08;65.33;99712.81;5109284;28;20185;-58
2023/08/29 05:08:50;;;;;;;5.20;1.80;;;;;;;21.07;65.41;99712.00;5103329;28;20211;-57
2023/08/29 05:11:15;;;;;;;2.50;1.77;;;;;;;21.07;65.54;99719.81;5111506;28;21067;-57
2023/08/29 05:13:41;;;;;;;3.30;2.37;;;;;;;21.06;65.42;99713.22;5081549;28;20618;-58
2023/08/29 05:16:06;;;;;;;4.73;1.87;;;;;;;21.06;65.41;99706.66;5100610;28;20537;-58
2023/08/29 05:18:32;;;;;;;4.80;2.20;;;;;;;21.06;65.53;99716.09;5099234;28;20840;-58
2023/08/29 05:20:57;;;;;;;5.00;2.10;;;;;;;21.04;65.11;99712.84;5085261;28;20463;-58
2023/08/29 05:23:23;;;;;;;10.50;2.50;;;;;;;21.04;65.49;99715.72;5101860;28;20190;-58
2023/08/29 05:25:49;;;;;;;4.73;2.17;;;;;;;21.03;65.98;99711.19;5106232;27;20162;-57
2023/08/29 05:28:14;;;;;;;4.00;2.77;;;;;;;21.04;65.53;99706.25;5098906;28;20682;-57
2023/08/29 05:30:40;;;;;;;7.80;2.50;;;;;;;21.03;65.56;99714.03;5098886;28;20435;-57
2023/08/29 05:33:05;;;;;;;4.60;2.03;;;;;;;21.04;65.18;99709.13;5100104;28;20174;-57
2023/08/29 05:35:31;;;;;;;4.37;2.20;;;;;;;21.05;65.82;99717.34;5100725;28;20169;-57
2023/08/29 05:37:57;;;;;;;5.50;2.50;;;;;;;21.05;65.85;99722.25;5107184;27;20178;-57
2023/08/29 05:40:22;;;;;;;3.17;2.30;;;;;;;21.05;65.52;99720.22;5100521;27;20182;-58
2023/08/29 05:42:48;;;;;;;3.20;1.93;;;;;;;21.05;65.79;99722.25;5098894;28;20174;-57
2023/08/29 05:45:13;;;;;;;6.10;2.13;;;;;;;21.04;65.62;99721.44;5082167;28;20170;-57
2023/08/29 05:47:39;;;;;;;4.97;2.30;;;;;;;21.05;65.37;99728.00;5105216;28;20204;-58
2023/08/29 05:50:05;;;;;;;3.93;1.90;;;;;;;21.05;65.72;99725.94;5103012;28;20208;-58
2023/08/29 05:52:31;;;;;;;3.10;2.10;;;;;;;21.05;65.18;99728.81;5081142;28;20181;-58
2023/08/29 05:54:57;;;;;;;6.70;2.80;;;;;;;21.04;65.31;99715.72;5102951;27;20412;-57
2023/08/29 05:57:23;;;;;;;4.63;2.40;;;;;;;21.03;65.63;99722.66;5108893;28;20179;-57
2023/08/29 05:59:48;;;;;;;5.67;2.67;;;;;;;21.02;65.55;99723.88;5102334;28;20430;-58
2023/08/29 06:02:13;;;;;;;3.87;2.30;;;;;;;21.04;65.70;99726.34;5109488;28;20580;-57
2023/08/29 06:04:39;;;;;;;5.47;2.13;;;;;;;21.03;65.91;99730.47;5099902;28;20534;-56
2023/08/29 06:07:05;;;;;;;5.83;2.23;;;;;;;21.02;65.77;99729.63;5109577;28;20169;-57
2023/08/29 06:09:32;;;;;;;4.17;2.00;;;;;;;21.03;65.44;99737.00;5107096;28;20318;-57
2023/08/29 06:12:01;;;;;;;4.60;2.30;;;;;;;21.03;65.37;99737.00;5096395;28;20444;-57
2023/08/29 06:14:26;;;;;;;3.50;2.43;;;;;;;21.04;65.45;99735.81;5096480;28;20498;-57
2023/08/29 06:16:52;;;;;;;3.20;2.33;;;;;;;21.03;65.60;99742.75;5104872;28;21180;-58
2023/08/29 06:19:17;;;;;;;3.40;2.33;;;;;;;20.91;66.59;99742.34;5110137;27;20181;-59
2023/08/29 06:21:43;;;;;;;3.20;2.50;;;;;;;21.16;67.63;99731.66;5105076;27;20214;-59
2023/08/29 06:24:08;;;;;;;10.00;5.40;;;;;;;21.39;69.88;99732.03;5098555;28;20213;-59
2023/08/29 06:26:34;;;;;;;17.50;8.60;;;;;;;21.51;70.34;99735.28;5105336;28;20247;-59
2023/08/29 06:28:59;;;;;;;16.67;7.83;;;;;;;21.45;71.00;99736.13;5085145;28;20216;-59
2023/08/29 06:31:25;;;;;;;14.37;6.10;;;;;;;21.21;70.76;99743.56;5101824;28;20186;-58
2023/08/29 06:33:50;;;;;;;11.17;5.57;;;;;;;20.05;72.81;99748.31;5097063;28;20176;-59
2023/08/29 06:36:16;;;;;;;9.17;5.37;;;;;;;20.74;71.67;99746.84;5107307;28;20173;-60
2023/08/29 06:38:42;;;;;;;9.10;4.97;;;;;;;20.77;71.49;99748.06;5106470;28;20174;-59
2023/08/29 06:41:08;;;;;;;8.40;4.40;;;;;;;20.94;70.69;99756.72;5090299;28;20603;-59
2023/08/29 06:43:33;;;;;;;6.67;5.50;;;;;;;20.53;71.10;99746.00;5069770;28;20472;-61
2023/08/29 06:45:58;;;;;;;9.40;4.90;;;;;;;20.84;70.17;99750.94;5089840;28;20179;-60
2023/08/29 06:48:24;;;;;;;7.90;5.10;;;;;;;21.06;69.47;99753.41;5101408;27;20225;-59
2023/08/29 06:50:50;;;;;;;9.43;4.37;;;;;;;21.24;68.95;99759.97;5107990;28;20205;-59
2023/08/29 06:53:15;;;;;;;8.70;4.10;;;;;;;21.33;68.10;99750.94;5087792;28;20170;-59
2023/08/29 06:55:41;;;;;;;8.90;3.63;;;;;;;21.33;68.55;99754.59;5099536;28;20951;-60
2023/08/29 06:58:06;;;;;;;6.50;3.50;;;;;;;21.29;68.74;99762.44;5104778;28;20697;-59
2023/08/29 07:00:32;;;;;;;5.50;3.20;;;;;;;21.38;68.38;99765.66;5100861;28;20182;-59
2023/08/29 07:02:58;;;;;;;6.67;3.80;;;;;;;21.40;68.13;99762.38;5113743;27;20523;-60
2023/08/29 07:05:24;;;;;;;4.83;3.10;;;;;;;21.36;67.79;99762.41;5106769;28;21101;-59
2023/08/29 07:07:49;;;;;;;5.83;3.63;;;;;;;21.38;67.98;99759.13;5085918;27;20423;-59
2023/08/29 07:10:15;;;;;;;5.70;3.40;;;;;;;21.41;67.58;99761.97;5107260;28;20150;-58
2023/08/29 07:12:42;;;;;;;5.40;3.40;;;;;;;21.45;67.48;99770.56;5089207;28;20170;-59
2023/08/29 07:15:08;;;;;;;4.10;2.93;;;;;;;21.44;67.48;99758.28;5104510;28;20204;-60
2023/08/29 07:17:33;;;;;;;5.40;3.00;;;;;;;21.44;67.94;99761.16;5091966;28;21082;-60
2023/08/29 07:19:59;;;;;;;5.67;3.10;;;;;;;21.48;67.20;99761.94;5097173;28;20459;-59
2023/08/29 07:22:24;;;;;;;6.00;2.97;;;;;;;21.42;67.70;99769.34;5098196;28;20232;-59
2023/08/29 07:24:50;;;;;;;5.07;3.00;;;;;;;21.58;68.68;99774.66;5089130;28;20231;-59
2023/08/29 07:27:15;;;;;;;6.20;3.80;;;;;;;21.75;69.28;99768.06;5107176;27;20218;-58
2023/08/29 07:29:41;;;;;;;3.93;3.20;;;;;;;21.76;68.45;99763.94;5108088;28;20901;-59
2023/08/29 07:32:07;;;;;;;5.13;3.73;;;;;;;21.63;67.84;99772.16;5107335;28;20636;-59
2023/08/29 07:34:32;;;;;;;5.47;3.57;;;;;;;21.63;69.64;99777.13;5104270;28;20197;-60
2023/08/29 07:36:58;;;;;;;4.57;3.37;;;;;;;21.62;69.86;99770.53;5086180;28;20182;-60
2023/08/29 07:39:24;;;;;;;7.23;3.37;;;;;;;21.60;69.47;99773.00;5096254;28;20182;-60
2023/08/29 07:41:50;;;;;;;5.70;3.60;;;;;;;21.62;69.03;99782.03;5103050;28;20196;-61
2023/08/29 07:44:16;;;;;;;4.63;3.33;;;;;;;21.60;68.92;99783.69;5097593;27;20201;-59
2023/08/29 07:46:41;;;;;;;9.73;3.50;;;;;;;21.62;68.98;99786.97;5109271;27;20200;-60
2023/08/29 07:49:13;;;;;;;6.60;2.67;;;;;;;21.55;68.55;99793.53;5128752;27;20283;-60
2023/08/29 07:51:39;;;;;;;4.40;2.90;;;;;;;21.62;68.75;99792.72;5090174;28;20170;-59
2023/08/29 07:54:05;;;;;;;4.60;2.93;;;;;;;21.61;68.83;99796.81;5099347;28;20426;-60
2023/08/29 07:56:30;;;;;;;3.30;2.53;;;;;;;21.35;68.07;99797.25;5102988;28;20423;-60
2023/08/29 07:58:56;;;;;;;6.90;3.13;;;;;;;21.26;68.24;99796.84;5106115;28;20548;-59
2023/08/29 08:01:21;;;;;;;6.97;4.80;;;;;;;21.06;68.98;99793.59;5100550;28;20178;-60
2023/08/29 08:03:47;;;;;;;5.53;4.10;;;;;;;20.59;70.14;99801.72;5105966;28;20193;-60
2023/08/29 08:06:12;;;;;;;7.10;4.33;;;;;;;20.06;71.66;99797.88;5105861;28;20166;-60
2023/08/29 08:08:38;;;;;;;6.60;5.17;;;;;;;19.82;72.14;99796.50;5100200;28;20851;-59
2023/08/29 08:11:04;;;;;;;8.97;6.70;;;;;;;19.87;72.51;99804.72;5106175;28;20269;-60
2023/08/29 08:13:31;;;;;;;6.57;4.50;;;;;;;20.63;70.14;99803.34;5103443;28;20185;-59
2023/08/29 08:15:56;;;;;;;9.27;4.17;;;;;;;20.96;69.28;99808.78;5093159;28;20456;-60
2023/08/29 08:18:22;;;;;;;10.90;3.53;;;;;;;21.11;68.33;99806.72;5098566;28;20452;-59
2023/08/29 08:20:47;;;;;;;4.63;3.40;;;;;;;21.20;67.89;99804.25;5087821;28;20205;-60
2023/08/29 08:23:13;;;;;;;5.43;3.37;;;;;;;21.29;67.48;99813.28;5100884;28;20213;-59
2023/08/29 08:25:38;;;;;;;10.53;2.90;;;;;;;21.30;67.85;99809.16;5104473;28;20182;-60
2023/08/29 08:28:06;;;;;;;10.23;5.90;;;;;;;20.80;69.30;99807.50;5100176;28;20182;-60
2023/08/29 08:30:32;;;;;;;10.70;5.37;;;;;;;20.56;70.65;99806.22;5099778;28;20641;-59
2023/08/29 08:32:57;;;;;;;8.80;5.70;;;;;;;20.71;69.65;99804.19;5101626;28;20439;-59
2023/08/29 08:35:23;;;;;;;12.30;6.23;;;;;;;20.56;69.94;99805.41;5096686;28;20186;-59
2023/08/29 08:37:48;;;;;;;15.10;10.07;;;;;;;19.73;72.63;99810.41;5108655;28;20178;-60
2023/08/29 08:40:15;;;;;;;10.90;7.67;;;;;;;19.64;72.94;99812.81;5092073;28;20209;-58
2023/08/29 08:42:40;;;;;;;12.83;5.87;;;;;;;20.23;71.37;99811.47;5102341;28;20186;-59
2023/08/29 08:45:06;;;;;;;8.53;5.00;;;;;;;20.69;69.11;99813.22;5088444;28;21397;-60
2023/08/29 08:47:33;;;;;;;8.93;5.63;;;;;;;20.91;68.30;99814.91;5087386;28;20175;-60
2023/08/29 08:49:59;;;;;;;8.93;4.50;;;;;;;20.97;68.08;99813.28;5072746;28;20269;-61
2023/08/29 08:52:24;;;;;;;6.40;5.10;;;;;;;20.67;70.58;99809.94;5079522;28;20456;-60
2023/08/29 08:54:49;;;;;;;20.97;4.60;;;;;;;20.73;69.76;99807.50;5101018;28;20193;-59
2023/08/29 08:57:15;;;;;;;9.07;4.70;;;;;;;20.87;68.79;99819.78;5096444;28;20181;-60
2023/08/29 08:59:41;;;;;;;10.63;4.67;;;;;;;20.97;68.96;99829.69;5071968;28;20182;-57
2023/08/29 09:02:10;;;;;;;7.27;3.83;;;;;;;21.06;68.54;99822.31;5096901;28;20184;-57
2023/08/29 09:04:36;;;;;;;6.77;4.87;;;;;;;21.01;68.29;99814.09;5109882;28;20950;-56
2023/08/29 09:07:01;;;;;;;6.00;3.57;;;;;;;21.04;68.51;99816.16;5088826;28;20429;-57
2023/08/29 09:09:27;;;;;;;7.10;3.43;;;;;;;21.10;68.12;99805.06;5091521;28;20220;-57
2023/08/29 09:11:54;;;;;;;7.00;3.53;;;;;;;21.10;68.29;99810.81;5086987;28;20181;-57
2023/08/29 09:14:20;;;;;;;6.40;3.30;;;;;;;21.11;68.13;99801.81;5086876;28;20188;-56
2023/08/29 09:16:45;;;;;;;4.17;2.90;;;;;;;21.11;67.94;99812.44;5089278;28;20427;-57
2023/08/29 09:19:13;;;;;;;7.93;3.50;;;;;;;21.11;68.47;99807.53;5090760;28;20427;-57
2023/08/29 09:21:42;;;;;;;5.00;3.43;;;;;;;21.12;68.20;99806.31;5090532;28;20355;-57
2023/08/29 09:24:12;;;;;;;9.13;3.70;;;;;;;21.15;68.58;99807.53;5094102;28;20563;-56
2023/08/29 09:26:39;;;;;;;5.53;2.73;;;;;;;21.17;68.32;99810.84;5073952;28;20463;-57
2023/08/29 09:29:18;;;;;;;6.77;2.93;;;;;;;21.17;68.10;99802.22;5091583;28;20412;-57
2023/08/29 09:31:44;;;;;;;8.07;4.00;;;;;;;21.16;68.00;99809.16;5092351;28;20494;-57
2023/08/29 09:34:21;;;;;;;6.60;3.23;;;;;;;21.12;68.28;99809.19;5104364;27;20602;-57
2023/08/29 09:36:46;;;;;;;7.53;3.00;;;;;;;21.15;68.34;99813.28;5077562;28;20500;-57
2023/08/29 09:39:13;;;;;;;3.90;2.90;;;;;;;21.16;68.18;99814.91;5093823;28;20416;-59
2023/08/29 09:41:39;;;;;;;7.10;3.10;;;;;;;21.18;67.70;99816.13;5094979;28;20178;-57
2023/08/29 09:44:11;;;;;;;4.43;2.70;;;;;;;21.16;67.73;99821.47;5110494;28;20496;-56
2023/08/29 09:46:36;;;;;;;4.80;2.83;;;;;;;21.18;67.99;99810.41;5088077;28;20468;-57
2023/08/29 09:49:02;;;;;;;5.07;2.60;;;;;;;21.18;67.86;99813.28;5089688;28;20463;-57
2023/08/29 09:51:28;;;;;;;4.57;2.63;;;;;;;21.19;67.88;99797.72;5090689;28;20169;-56
2023/08/29 09:53:56;;;;;;;7.10;3.10;;;;;;;21.20;67.62;99799.34;5113723;27;20184;-57
2023/08/29 09:56:21;;;;;;;5.90;3.50;;;;;;;21.17;67.98;99805.88;5106275;27;20436;-57
2023/08/29 09:58:47;;;;;;;5.37;2.90;;;;;;;21.17;67.97;99800.16;5091003;28;20919;-56
2023/08/29 10:01:13;;;;;;;5.07;2.63;;;;;;;21.17;67.68;99793.59;5090686;28;20525;-56
2023/08/29 10:03:38;;;;;;;6.83;3.07;;;;;;;21.18;67.23;99795.25;5108720;28;20451;-57
2023/08/29 10:06:05;;;;;;;5.77;3.00;;;;;;;21.08;67.49;99791.13;5111607;28;20178;-57
2023/08/29 10:08:34;;;;;;;4.40;2.63;;;;;;;21.16;67.87;99797.69;5091111;28;20531;-57
2023/08/29 10:10:59;;;;;;;4.17;2.70;;;;;;;21.15;67.61;99791.13;5079739;28;21013;-58
2023/08/29 10:13:25;;;;;;;4.73;2.50;;;;;;;21.16;67.52;99792.78;5089005;28;20420;-57
2023/08/29 10:15:51;;;;;;;5.10;2.77;;;;;;;21.19;67.73;99796.88;5108288;28;20182;-56
2023/08/29 10:18:17;;;;;;;4.77;2.90;;;;;;;21.16;67.74;99791.94;5106539;28;20178;-57
2023/08/29 10:20:45;;;;;;;5.00;3.70;;;;;;;21.19;67.54;99794.00;5055522;28;20425;-57
2023/08/29 10:23:11;;;;;;;3.40;2.07;;;;;;;21.19;67.66;99786.22;5090555;28;20217;-57
2023/08/29 10:25:38;;;;;;;9.40;2.70;;;;;;;21.17;67.85;99791.53;5092738;28;20460;-56
2023/08/29 10:28:05;;;;;;;8.33;2.70;;;;;;;21.19;67.78;99791.13;5083945;28;20189;-56
2023/08/29 10:30:31;;;;;;;5.13;3.27;;;;;;;21.18;67.71;99781.69;5074494;28;20482;-56
2023/08/29 10:32:56;;;;;;;6.87;3.17;;;;;;;21.22;67.70;99782.50;5083497;28;20435;-56
2023/08/29 10:35:22;;;;;;;5.13;2.60;;;;;;;21.21;67.48;99789.50;5090655;28;20162;-57
2023/08/29 10:37:51;;;;;;;4.30;2.60;;;;;;;21.21;67.83;99786.63;5091784;28;20534;-56
2023/08/29 10:40:17;;;;;;;8.10;3.20;;;;;;;21.22;67.86;99788.25;5101205;28;20590;-57
2023/08/29 10:42:57;;;;;;;5.20;2.90;;;;;;;21.22;67.55;99790.31;5129922;27;20432;-57
2023/08/29 10:45:47;;;;;;;3.73;2.43;;;;;;;21.15;67.92;99785.41;5109575;27;20194;-57
2023/08/29 10:48:18;;;;;;;3.90;2.57;;;;;;;21.22;67.79;99785.38;5088152;28;20416;-57
2023/08/29 10:50:48;;;;;;;4.83;2.80;;;;;;;21.24;67.70;99771.44;5090606;28;20443;-56
2023/08/29 10:53:23;;;;;;;4.70;2.80;;;;;;;21.23;67.29;99769.78;5087835;28;20416;-58
2023/08/29 10:56:03;;;;;;;8.23;2.70;;;;;;;21.21;67.56;99768.56;5111153;27;20406;-57
2023/08/29 10:58:42;;;;;;;4.43;2.70;;;;;;;21.05;67.83;99777.63;5097912;28;20431;-56
2023/08/29 11:01:27;;;;;;;5.30;3.07;;;;;;;21.07;68.26;99772.28;5094044;28;20427;-56
2023/08/29 11:03:52;;;;;;;5.53;2.60;;;;;;;21.09;67.94;99769.81;5089985;28;20467;-57
2023/08/29 11:06:18;;;;;;;5.17;3.87;;;;;;;21.10;67.55;99768.59;5089329;28;20467;-57
2023/08/29 11:08:44;;;;;;;6.23;3.70;;;;;;;21.14;67.72;99775.16;5073699;28;20190;-56
2023/08/29 11:11:09;;;;;;;5.13;3.03;;;;;;;21.08;67.99;99771.03;5085347;28;20420;-57
2023/08/29 11:13:35;;;;;;;5.17;3.17;;;;;;;21.15;68.03;99770.22;5096778;27;20186;-57
2023/08/29 11:16:00;;;;;;;4.97;2.90;;;;;;;21.18;67.66;99760.78;5093653;27;20190;-57
2023/08/29 11:18:30;;;;;;;5.60;2.90;;;;;;;21.21;67.21;99755.03;5094912;28;20316;-57
2023/08/29 11:20:56;;;;;;;4.10;2.57;;;;;;;21.21;67.24;99749.28;5106503;28;20272;-57
2023/08/29 11:23:22;;;;;;;6.00;2.77;;;;;;;21.20;67.15;99752.56;5100205;28;20464;-58
2023/08/29 11:25:50;;;;;;;4.20;2.73;;;;;;;21.18;67.56;99750.09;5095366;28;20207;-56
2023/08/29 11:28:17;;;;;;;4.80;2.90;;;;;;;21.20;67.32;99750.53;5095477;28;20451;-56
2023/08/29 11:30:45;;;;;;;5.07;3.20;;;;;;;21.12;67.97;99751.75;5094503;28;20785;-58